Time;durP1;ratioP1;P1;durP2;ratioP2;P2;SDS_P1;SDS_P2;PMS_P1;PMS_P2;Temp;Humidity;BMP_temperature;BMP_pressure;BME280_temperature;BME280_humidity;BME280_pressure;Samples;Min_cycle;Max_cycle;Signal;HPM_P1;HPM_P2
2021/06/18 00:01:49;;;;;;;9.70;4.85;;;;;;;32.11;40.66;100973.63;5035940;28;20060;-59
2021/06/18 00:04:14;;;;;;;6.10;4.60;;;;;;;32.06;40.83;100973.59;5034621;28;20558;-59
2021/06/18 00:06:40;;;;;;;7.18;5.03;;;;;;;32.01;40.52;100976.34;5035069;28;20025;-59
2021/06/18 00:09:05;;;;;;;7.28;5.00;;;;;;;31.97;40.82;100977.94;5068491;28;20036;-59
2021/06/18 00:11:31;;;;;;;8.90;5.00;;;;;;;31.94;40.73;100979.31;5075935;28;20057;-59
2021/06/18 00:13:56;;;;;;;6.88;4.43;;;;;;;31.92;40.99;100981.53;5056798;28;20033;-60
2021/06/18 00:16:22;;;;;;;8.10;4.72;;;;;;;31.90;41.08;100971.81;5056088;28;20106;-58
2021/06/18 00:18:47;;;;;;;6.75;5.03;;;;;;;31.86;41.08;100970.66;5021101;28;20025;-59
2021/06/18 00:21:12;;;;;;;6.50;4.57;;;;;;;31.84;40.66;100961.78;5055557;28;20505;-60
2021/06/18 00:23:38;;;;;;;10.15;5.78;;;;;;;31.82;40.92;100964.84;5055425;28;20056;-59
2021/06/18 00:26:03;;;;;;;10.68;5.47;;;;;;;31.78;41.21;100963.69;5055610;28;20033;-59
2021/06/18 00:28:29;;;;;;;9.35;4.90;;;;;;;31.76;41.35;100963.13;5055251;28;20090;-60
2021/06/18 00:30:54;;;;;;;8.85;5.90;;;;;;;31.74;41.46;100950.63;5036880;28;20124;-59
2021/06/18 00:33:19;;;;;;;13.15;5.35;;;;;;;31.67;41.41;100932.28;5020879;28;20114;-58
2021/06/18 00:35:45;;;;;;;7.50;5.72;;;;;;;31.55;41.33;100920.56;5037635;28;20052;-58
2021/06/18 00:38:10;;;;;;;11.15;5.80;;;;;;;31.67;41.49;100940.59;5055513;28;20082;-58
2021/06/18 00:40:35;;;;;;;9.18;5.22;;;;;;;31.68;41.57;100956.16;5055267;28;20496;-58
2021/06/18 00:43:01;;;;;;;8.15;4.97;;;;;;;31.69;41.10;100971.66;5055363;28;20029;-60
2021/06/18 00:45:27;;;;;;;11.13;5.57;;;;;;;31.67;41.94;100973.00;5054977;28;20036;-58
2021/06/18 00:48:00;;;;;;;8.43;5.22;;;;;;;31.66;41.93;100972.16;5055171;28;20033;-59
2021/06/18 00:50:27;;;;;;;10.35;5.38;;;;;;;31.65;41.72;100978.84;5054023;28;20118;-58
2021/06/18 00:52:52;;;;;;;9.40;4.93;;;;;;;31.62;41.72;100965.50;5055182;28;20377;-59
2021/06/18 00:55:18;;;;;;;12.35;5.55;;;;;;;31.61;41.34;100963.81;5054864;28;20028;-58
2021/06/18 00:57:43;;;;;;;6.13;4.95;;;;;;;31.57;41.79;100957.16;5037464;28;20075;-59
2021/06/18 01:00:12;;;;;;;10.07;5.28;;;;;;;31.52;41.57;100953.50;5054909;28;20025;-59
2021/06/18 01:02:39;;;;;;;10.80;5.35;;;;;;;31.50;41.87;100970.38;5055211;28;20075;-59
2021/06/18 01:05:10;;;;;;;9.23;5.22;;;;;;;31.47;42.21;100962.59;5055155;28;20032;-59
2021/06/18 01:07:45;;;;;;;15.45;5.40;;;;;;;31.45;42.00;100955.63;5054280;28;20052;-58
2021/06/18 01:10:49;;;;;;;7.75;4.40;;;;;;;31.43;42.01;100953.13;5036967;28;20430;-59
2021/06/18 01:13:42;;;;;;;8.02;5.43;;;;;;;31.37;42.23;100945.88;5054677;28;20025;-59
2021/06/18 01:16:31;;;;;;;9.40;4.68;;;;;;;31.32;42.18;100947.75;5054349;28;20021;-59
2021/06/18 01:19:00;;;;;;;6.18;4.45;;;;;;;31.28;42.32;100941.91;5053500;28;20025;-59
2021/06/18 01:21:47;;;;;;;9.02;5.30;;;;;;;31.23;42.09;100944.63;5037058;28;20029;-59
2021/06/18 01:24:30;;;;;;;9.20;5.07;;;;;;;31.23;42.31;100955.69;5053436;28;20134;-58
2021/06/18 01:27:17;;;;;;;12.65;5.18;;;;;;;31.19;42.50;100946.25;5036562;28;20033;-58
2021/06/18 01:29:48;;;;;;;6.93;5.07;;;;;;;31.15;42.70;100945.09;5054816;28;20167;-58
2021/06/18 01:32:29;;;;;;;6.70;4.90;;;;;;;31.13;42.43;100955.59;5036747;28;20059;-58
2021/06/18 01:34:55;;;;;;;7.38;5.03;;;;;;;31.08;42.67;100937.00;5036407;28;20021;-58
2021/06/18 01:37:24;;;;;;;9.50;5.88;;;;;;;31.08;42.49;100939.78;5053153;28;20470;-59
2021/06/18 01:39:50;;;;;;;10.57;5.00;;;;;;;31.06;42.47;100946.66;5054424;28;20017;-59
2021/06/18 01:42:17;;;;;;;5.38;4.65;;;;;;;31.03;42.82;100938.88;5035832;28;20389;-59
2021/06/18 01:44:43;;;;;;;9.75;5.00;;;;;;;31.00;42.39;100944.94;5053176;28;20523;-59
2021/06/18 01:47:09;;;;;;;8.73;4.40;;;;;;;30.96;42.29;100954.88;5054130;28;20048;-59
2021/06/18 01:49:38;;;;;;;7.10;4.40;;;;;;;30.92;42.80;100959.22;5036177;28;20043;-59
2021/06/18 01:52:04;;;;;;;5.70;4.60;;;;;;;30.89;42.61;100954.19;5036322;28;20040;-59
2021/06/18 01:54:31;;;;;;;8.45;4.85;;;;;;;30.88;43.06;100960.81;5053989;28;20040;-58
2021/06/18 01:56:59;;;;;;;5.38;3.85;;;;;;;30.80;42.80;100964.03;5036862;28;20090;-58
2021/06/18 01:59:26;;;;;;;12.40;4.82;;;;;;;30.78;43.03;100967.09;5052645;28;20444;-58
2021/06/18 02:01:53;;;;;;;6.18;4.20;;;;;;;30.73;42.74;100971.72;5020139;28;20040;-58
2021/06/18 02:04:18;;;;;;;12.48;4.38;;;;;;;30.69;43.17;100959.50;5036056;28;20485;-59
2021/06/18 02:06:48;;;;;;;6.47;4.45;;;;;;;30.69;43.05;100971.41;5035990;28;20029;-58
2021/06/18 02:09:15;;;;;;;9.07;4.32;;;;;;;30.65;43.15;100969.41;5032754;28;20073;-59
2021/06/18 02:11:41;;;;;;;12.38;4.47;;;;;;;30.60;43.04;100972.13;5032742;28;20029;-59
2021/06/18 02:14:16;;;;;;;7.13;4.47;;;;;;;30.63;42.97;100977.16;5032790;28;20072;-59
2021/06/18 02:16:45;;;;;;;6.35;4.10;;;;;;;30.63;43.10;100960.56;5033820;28;20018;-58
2021/06/18 02:19:14;;;;;;;7.60;4.63;;;;;;;30.68;43.74;100963.38;5033370;28;20030;-58
2021/06/18 02:21:40;;;;;;;6.78;4.57;;;;;;;30.70;42.95;100956.47;5032497;28;20036;-58
2021/06/18 02:24:06;;;;;;;7.50;4.05;;;;;;;30.72;43.51;100956.22;5032624;28;20116;-59
2021/06/18 02:26:32;;;;;;;7.82;3.67;;;;;;;30.72;42.91;100953.44;5032220;28;20022;-58
2021/06/18 02:28:57;;;;;;;9.80;4.63;;;;;;;30.74;43.38;100952.09;5032845;28;20060;-59
2021/06/18 02:31:24;;;;;;;8.70;4.68;;;;;;;30.68;43.36;100944.84;5032709;28;20076;-59
2021/06/18 02:33:53;;;;;;;10.15;4.38;;;;;;;30.67;43.44;100945.09;5033526;28;20030;-59
2021/06/18 02:36:20;;;;;;;8.07;4.82;;;;;;;30.68;43.36;100949.53;5032163;28;20371;-58
2021/06/18 02:38:46;;;;;;;8.27;4.68;;;;;;;30.68;43.33;100946.78;5033487;28;20025;-59
2021/06/18 02:41:12;;;;;;;9.15;4.40;;;;;;;30.67;43.31;100956.16;5033456;28;20372;-59
2021/06/18 02:43:38;;;;;;;6.63;4.72;;;;;;;30.67;43.28;100951.47;5031990;28;20024;-59
2021/06/18 02:46:03;;;;;;;5.20;3.92;;;;;;;30.69;43.06;100959.50;5033191;28;20026;-58
2021/06/18 02:48:36;;;;;;;7.07;4.57;;;;;;;30.66;43.23;100943.41;5033817;28;20088;-58
2021/06/18 02:51:22;;;;;;;8.70;4.38;;;;;;;30.66;43.13;100952.53;5032061;28;20556;-60
2021/06/18 02:54:09;;;;;;;9.38;4.75;;;;;;;30.63;43.24;100941.19;5034290;28;20464;-59
2021/06/18 02:56:43;;;;;;;6.78;4.32;;;;;;;30.60;43.31;100936.16;5037419;28;20543;-58
2021/06/18 02:59:30;;;;;;;6.80;4.90;;;;;;;30.57;43.58;100935.56;5037531;28;20026;-59
2021/06/18 03:01:56;;;;;;;7.82;5.20;;;;;;;30.55;43.69;100940.53;5037268;28;20030;-58
2021/06/18 03:04:25;;;;;;;8.05;4.28;;;;;;;30.55;43.33;100948.81;5035994;28;20100;-60
2021/06/18 03:06:53;;;;;;;8.63;4.80;;;;;;;30.52;43.82;100951.25;5035698;28;20363;-58
2021/06/18 03:09:27;;;;;;;7.70;4.18;;;;;;;30.50;43.28;100945.16;5035482;28;20470;-58
2021/06/18 03:11:54;;;;;;;9.15;4.97;;;;;;;30.49;43.76;100949.84;5036912;28;20120;-58
2021/06/18 03:14:21;;;;;;;10.23;5.18;;;;;;;30.49;43.19;100962.84;5035601;28;20094;-59
2021/06/18 03:16:49;;;;;;;11.18;4.88;;;;;;;30.48;43.17;100958.41;5035399;28;20032;-59
2021/06/18 03:19:16;;;;;;;7.50;5.00;;;;;;;30.48;43.39;100958.41;5035776;28;20021;-59
2021/06/18 03:21:43;;;;;;;8.48;4.78;;;;;;;30.47;43.75;100957.56;5019096;28;20068;-58
2021/06/18 03:24:08;;;;;;;9.32;5.00;;;;;;;30.46;43.89;100972.50;5018904;28;20021;-59
2021/06/18 03:26:36;;;;;;;15.85;5.65;;;;;;;30.42;43.60;100971.34;5035654;28;20036;-59
2021/06/18 03:29:02;;;;;;;9.57;5.15;;;;;;;30.45;44.19;101019.78;5036864;28;20018;-59
2021/06/18 03:31:27;;;;;;;6.20;4.88;;;;;;;30.40;43.62;101031.56;5036591;28;20043;-60
2021/06/18 03:33:53;;;;;;;7.30;4.65;;;;;;;30.35;43.40;101039.78;5035546;28;20037;-58
2021/06/18 03:36:23;;;;;;;10.98;5.40;;;;;;;30.34;44.18;101007.69;5035525;28;20037;-58
2021/06/18 03:38:50;;;;;;;7.32;5.70;;;;;;;30.33;43.85;100986.66;5035416;28;20033;-58
2021/06/18 03:41:16;;;;;;;11.77;5.40;;;;;;;30.41;44.08;101002.84;5035721;28;20429;-59
2021/06/18 03:43:42;;;;;;;11.93;6.40;;;;;;;30.44;43.93;101012.56;5035071;28;20049;-59
2021/06/18 03:46:08;;;;;;;14.30;5.95;;;;;;;30.50;43.52;101017.91;5036258;28;20065;-58
2021/06/18 03:48:35;;;;;;;11.60;5.60;;;;;;;30.55;43.99;101033.72;5035189;28;20041;-58
2021/06/18 03:51:01;;;;;;;6.20;4.88;;;;;;;30.60;44.27;101032.97;5035205;28;20030;-59
2021/06/18 03:53:26;;;;;;;13.10;4.85;;;;;;;30.66;43.41;101026.38;5035242;28;20025;-59
2021/06/18 03:55:52;;;;;;;7.50;4.72;;;;;;;30.69;43.43;101031.41;5035157;28;20029;-58
2021/06/18 03:58:21;;;;;;;8.82;4.95;;;;;;;30.72;43.34;101025.38;5036566;28;20518;-59
2021/06/18 04:00:49;;;;;;;7.65;4.68;;;;;;;30.79;43.72;101018.56;5035013;28;20021;-59
2021/06/18 04:03:15;;;;;;;9.95;5.40;;;;;;;30.83;43.90;100999.50;5036176;28;20068;-58
2021/06/18 04:05:42;;;;;;;11.88;4.90;;;;;;;30.86;43.97;100987.91;5034065;28;20410;-58
2021/06/18 04:08:08;;;;;;;13.40;5.07;;;;;;;30.88;43.46;100991.25;5034663;28;20591;-58
2021/06/18 04:10:33;;;;;;;7.50;4.90;;;;;;;30.92;44.03;100986.88;5036084;28;20032;-59
2021/06/18 04:13:01;;;;;;;11.77;4.90;;;;;;;30.96;43.51;100983.38;5035719;28;20034;-59
2021/06/18 04:15:26;;;;;;;9.00;4.82;;;;;;;30.97;43.54;100973.13;5034745;28;20075;-59
2021/06/18 04:17:53;;;;;;;10.50;5.57;;;;;;;30.98;43.42;100981.19;5034760;28;20112;-58
2021/06/18 04:20:20;;;;;;;14.20;6.38;;;;;;;30.99;43.62;100977.31;5035795;28;20118;-59
2021/06/18 04:22:46;;;;;;;8.13;5.43;;;;;;;31.03;43.13;100966.56;5018479;28;20057;-58
2021/06/18 04:25:11;;;;;;;10.52;5.88;;;;;;;31.07;43.31;100962.19;5017770;28;20355;-58
2021/06/18 04:27:37;;;;;;;11.88;6.28;;;;;;;31.12;43.31;100973.31;5035874;28;20028;-59
2021/06/18 04:30:10;;;;;;;11.95;6.00;;;;;;;31.13;43.38;100973.03;5035726;28;20033;-59
2021/06/18 04:32:36;;;;;;;14.85;6.93;;;;;;;31.19;43.44;100965.63;5035662;28;20033;-58
2021/06/18 04:35:03;;;;;;;9.80;6.10;;;;;;;31.21;43.46;100962.59;5034395;28;20129;-58
2021/06/18 04:37:28;;;;;;;8.55;5.93;;;;;;;31.22;43.39;100954.03;5035479;28;20505;-60
2021/06/18 04:39:54;;;;;;;15.40;7.78;;;;;;;31.21;42.99;100957.06;5033957;28;20026;-59
2021/06/18 04:42:20;;;;;;;10.13;6.43;;;;;;;31.25;43.05;100953.50;5034246;28;20034;-60
2021/06/18 04:44:45;;;;;;;11.50;6.57;;;;;;;31.24;43.29;100951.81;5035320;28;20025;-59
2021/06/18 04:47:11;;;;;;;8.27;6.40;;;;;;;31.26;43.15;100949.66;5034921;28;20513;-60
2021/06/18 04:49:36;;;;;;;9.45;6.95;;;;;;;31.32;43.31;100954.13;5036322;28;20033;-60
2021/06/18 04:52:01;;;;;;;10.15;6.25;;;;;;;31.33;43.11;100950.25;5035311;28;20029;-59
2021/06/18 04:54:27;;;;;;;10.60;6.97;;;;;;;31.41;43.27;100943.41;5033865;28;20108;-59
2021/06/18 04:56:53;;;;;;;20.50;7.50;;;;;;;31.44;43.34;100956.72;5034044;28;20037;-59
2021/06/18 04:59:19;;;;;;;11.45;6.63;;;;;;;31.47;43.10;100964.53;5035087;28;20443;-59
2021/06/18 05:01:46;;;;;;;9.75;6.70;;;;;;;31.49;43.04;100965.94;5035006;28;20083;-59
2021/06/18 05:04:11;;;;;;;9.60;7.13;;;;;;;31.52;43.17;100970.94;5033614;28;20390;-58
2021/06/18 05:06:37;;;;;;;9.45;7.55;;;;;;;31.53;43.06;100978.16;5035011;28;20033;-59
2021/06/18 05:09:03;;;;;;;12.48;7.18;;;;;;;31.56;43.05;100993.41;5048198;28;20400;-58
2021/06/18 05:11:28;;;;;;;10.45;7.75;;;;;;;31.60;43.44;100989.03;5037323;28;20099;-59
2021/06/18 05:13:54;;;;;;;11.10;7.90;;;;;;;31.62;43.08;101001.53;5054469;28;20033;-59
2021/06/18 05:16:19;;;;;;;8.90;6.57;;;;;;;31.67;43.04;101000.72;5036458;28;20474;-59
2021/06/18 05:18:45;;;;;;;13.13;7.00;;;;;;;31.75;43.06;101002.16;5036866;28;20125;-59
2021/06/18 05:21:10;;;;;;;9.10;6.43;;;;;;;31.82;42.77;100991.72;5054602;28;20040;-60
2021/06/18 05:23:36;;;;;;;10.32;7.38;;;;;;;31.82;42.95;101002.78;5054329;28;20036;-59
2021/06/18 05:26:01;;;;;;;10.00;6.60;;;;;;;31.85;42.85;101000.34;5054530;28;20037;-59
2021/06/18 05:28:26;;;;;;;12.27;7.32;;;;;;;31.86;42.62;100996.44;5054216;28;20119;-59
2021/06/18 05:30:52;;;;;;;7.63;6.40;;;;;;;31.87;42.81;101000.06;5054445;28;20021;-59
2021/06/18 05:33:17;;;;;;;16.80;8.02;;;;;;;31.89;42.98;101003.38;5054453;28;20355;-59
2021/06/18 05:35:45;;;;;;;9.80;7.40;;;;;;;31.89;43.00;101003.38;5054326;28;20112;-59
2021/06/18 05:38:10;;;;;;;11.75;7.22;;;;;;;31.92;43.13;101009.25;5054325;28;20025;-60
2021/06/18 05:40:41;;;;;;;16.48;7.40;;;;;;;31.92;42.63;101025.03;5054153;28;20512;-58
2021/06/18 05:43:06;;;;;;;10.80;7.78;;;;;;;31.87;42.56;101023.06;5020269;28;20119;-59
2021/06/18 05:45:34;;;;;;;11.68;7.85;;;;;;;31.86;42.96;101038.00;5054540;28;20108;-59
2021/06/18 05:47:59;;;;;;;14.02;8.68;;;;;;;31.84;43.09;101044.94;5050059;28;20092;-59
2021/06/18 05:50:24;;;;;;;12.40;8.05;;;;;;;31.84;43.09;101047.69;5033895;28;20057;-58
2021/06/18 05:52:50;;;;;;;12.65;7.57;;;;;;;31.83;42.80;101043.28;5033159;28;20365;-59
2021/06/18 05:55:16;;;;;;;10.10;7.35;;;;;;;31.83;43.16;101048.81;5034397;28;20433;-59
2021/06/18 05:57:42;;;;;;;16.35;7.55;;;;;;;31.78;42.54;101043.19;5033766;28;20045;-59
2021/06/18 06:00:08;;;;;;;13.70;8.00;;;;;;;31.72;42.97;101031.25;5033644;28;20025;-59
2021/06/18 06:02:34;;;;;;;11.93;7.18;;;;;;;31.74;42.92;101044.84;5033727;28;20140;-58
2021/06/18 06:04:59;;;;;;;10.07;7.05;;;;;;;31.73;42.65;101043.16;5033976;28;20026;-59
2021/06/18 06:07:24;;;;;;;11.85;7.65;;;;;;;31.69;42.76;101043.69;5034061;28;20036;-59
2021/06/18 06:09:50;;;;;;;11.88;7.13;;;;;;;31.69;42.65;101046.47;5053731;28;20432;-59
2021/06/18 06:12:15;;;;;;;11.98;7.40;;;;;;;31.67;42.77;101042.28;5053642;28;20112;-59
2021/06/18 06:14:41;;;;;;;9.70;7.38;;;;;;;31.64;42.81;101057.50;5052596;28;20446;-59
2021/06/18 06:17:06;;;;;;;14.25;9.30;;;;;;;31.62;42.74;101059.72;5054484;28;20037;-60
2021/06/18 06:19:32;;;;;;;10.35;7.57;;;;;;;31.59;42.86;101049.16;5054687;28;20032;-59
2021/06/18 06:21:57;;;;;;;17.48;7.65;;;;;;;31.57;43.14;101056.06;5054271;28;20386;-59
2021/06/18 06:24:22;;;;;;;14.65;8.70;;;;;;;31.54;43.19;101051.03;5053773;28;20025;-59
2021/06/18 06:26:48;;;;;;;9.20;6.93;;;;;;;31.51;42.99;101049.63;5053968;28;20131;-59
2021/06/18 06:29:13;;;;;;;21.13;9.60;;;;;;;31.45;43.18;101047.88;5053765;28;20460;-59
2021/06/18 06:31:39;;;;;;;14.35;7.60;;;;;;;31.41;43.48;101023.72;5046150;28;20386;-59
2021/06/18 06:34:05;;;;;;;12.52;7.63;;;;;;;31.34;43.67;101001.78;5024441;28;20022;-59
2021/06/18 06:36:30;;;;;;;15.00;8.20;;;;;;;31.27;43.72;100995.59;5014617;28;20033;-58
2021/06/18 06:38:56;;;;;;;18.27;8.30;;;;;;;31.20;44.15;101000.53;5014497;28;20022;-58
2021/06/18 06:41:21;;;;;;;13.80;9.23;;;;;;;31.17;44.13;100995.50;5014395;28;20116;-59
2021/06/18 06:43:47;;;;;;;16.70;8.25;;;;;;;31.11;43.95;100983.53;5014562;28;20022;-59
2021/06/18 06:46:12;;;;;;;11.48;7.63;;;;;;;31.16;44.01;100979.97;5014833;28;20026;-58
2021/06/18 06:48:38;;;;;;;14.35;9.15;;;;;;;31.14;44.39;100980.25;5014269;28;20036;-60
2021/06/18 06:51:03;;;;;;;10.95;7.35;;;;;;;31.13;44.41;100983.25;5014839;28;20038;-59
2021/06/18 06:53:28;;;;;;;14.35;7.60;;;;;;;31.09;44.36;100976.59;4996599;28;20364;-58
2021/06/18 06:55:54;;;;;;;10.25;8.15;;;;;;;31.08;44.38;100981.28;5014494;28;20061;-59
2021/06/18 06:58:19;;;;;;;11.02;7.90;;;;;;;31.04;44.29;100982.09;5014403;28;20076;-59
2021/06/18 07:00:45;;;;;;;13.23;8.20;;;;;;;31.10;44.38;101008.72;5013240;28;20238;-59
2021/06/18 07:03:10;;;;;;;15.30;8.48;;;;;;;31.14;44.38;101020.94;5012869;28;20030;-59
2021/06/18 07:05:36;;;;;;;16.23;8.32;;;;;;;31.20;44.25;101025.44;5012908;28;20025;-58
2021/06/18 07:08:19;;;;;;;10.95;7.90;;;;;;;31.26;44.42;101021.63;5014744;28;20058;-59
2021/06/18 07:10:45;;;;;;;10.80;8.48;;;;;;;31.30;44.48;101017.22;5014538;28;20026;-58
2021/06/18 07:13:10;;;;;;;15.20;8.43;;;;;;;31.36;44.37;101016.19;5014224;28;20471;-58
2021/06/18 07:15:35;;;;;;;14.05;8.30;;;;;;;31.42;44.17;101011.53;5014534;28;20032;-58
2021/06/18 07:18:01;;;;;;;13.32;8.65;;;;;;;31.41;44.69;101002.38;5014137;28;20382;-58
2021/06/18 07:20:26;;;;;;;15.32;8.02;;;;;;;31.56;44.36;101005.34;5029467;28;20104;-58
2021/06/18 07:22:52;;;;;;;16.77;7.60;;;;;;;31.65;44.16;101006.53;5014106;28;20034;-58
2021/06/18 07:25:17;;;;;;;13.57;7.35;;;;;;;31.75;43.99;101008.53;5014242;28;20026;-58
2021/06/18 07:27:43;;;;;;;11.68;8.02;;;;;;;31.82;44.34;101009.19;5013797;28;20105;-59
2021/06/18 07:30:09;;;;;;;17.15;8.25;;;;;;;31.92;43.87;101006.47;5028680;28;20084;-59
2021/06/18 07:32:34;;;;;;;10.40;7.88;;;;;;;32.02;43.85;101009.34;5013721;28;20076;-58
2021/06/18 07:34:59;;;;;;;12.98;8.32;;;;;;;32.15;43.42;101008.06;5014546;28;20057;-58
2021/06/18 07:37:25;;;;;;;14.43;9.20;;;;;;;32.35;43.55;101008.19;5013937;28;20117;-59
2021/06/18 07:39:50;;;;;;;20.27;8.57;;;;;;;32.91;43.01;101005.69;5014001;28;20026;-59
2021/06/18 07:42:15;;;;;;;11.23;8.30;;;;;;;33.09;42.17;101008.00;5015587;28;20073;-59
2021/06/18 07:44:41;;;;;;;13.73;7.95;;;;;;;33.36;41.96;101011.41;5018013;28;20029;-59
2021/06/18 07:47:06;;;;;;;14.13;9.25;;;;;;;33.38;42.63;101012.81;5018073;28;20034;-59
2021/06/18 07:49:33;;;;;;;14.35;7.65;;;;;;;33.48;41.89;101017.53;5017585;28;20045;-59
2021/06/18 07:51:58;;;;;;;11.85;8.02;;;;;;;33.90;42.08;101009.78;5017453;28;20075;-59
2021/06/18 07:54:23;;;;;;;15.82;8.48;;;;;;;34.23;40.57;101015.91;5032837;28;20427;-59
2021/06/18 07:56:49;;;;;;;16.00;9.43;;;;;;;34.51;40.55;101004.97;5017475;28;20564;-58
2021/06/18 07:59:14;;;;;;;44.70;15.30;;;;;;;34.74;39.98;101002.69;5032505;28;20036;-59
2021/06/18 08:01:39;;;;;;;12.10;7.68;;;;;;;34.93;40.00;101007.31;5017729;28;20049;-58
2021/06/18 08:04:05;;;;;;;27.10;13.30;;;;;;;35.16;39.76;101005.00;5017040;28;20034;-59
2021/06/18 08:06:30;;;;;;;14.23;9.68;;;;;;;35.38;39.37;101002.63;5017383;28;20026;-59
2021/06/18 08:08:56;;;;;;;20.27;9.77;;;;;;;35.55;39.57;100994.72;5029490;28;20561;-60
2021/06/18 08:11:21;;;;;;;20.08;12.13;;;;;;;35.79;38.82;100992.88;5036705;28;20100;-59
2021/06/18 08:13:46;;;;;;;23.95;10.65;;;;;;;35.98;38.98;100996.59;5037251;28;20352;-58
2021/06/18 08:16:12;;;;;;;19.88;10.35;;;;;;;36.01;38.73;101001.59;5036795;28;20033;-60
2021/06/18 08:18:38;;;;;;;21.27;11.38;;;;;;;36.24;38.63;100996.38;5036669;28;20466;-59
2021/06/18 08:21:05;;;;;;;11.05;8.35;;;;;;;36.13;38.30;100992.81;5037120;28;20030;-59
2021/06/18 08:23:30;;;;;;;14.18;9.02;;;;;;;36.27;38.61;100993.78;5036851;28;20037;-60
2021/06/18 08:25:56;;;;;;;13.43;10.32;;;;;;;36.47;38.17;100998.31;5036530;28;20022;-58
2021/06/18 08:28:21;;;;;;;14.88;10.25;;;;;;;36.68;38.26;100999.78;5036445;28;20036;-58
2021/06/18 08:30:47;;;;;;;15.18;9.68;;;;;;;36.90;37.76;101004.78;5037054;28;20029;-59
2021/06/18 08:33:12;;;;;;;14.18;8.82;;;;;;;37.01;37.52;100998.81;5035445;28;20099;-59
2021/06/18 08:35:37;;;;;;;15.38;8.18;;;;;;;37.12;37.45;100999.47;5036329;28;20131;-59
2021/06/18 08:38:03;;;;;;;18.45;8.77;;;;;;;37.26;37.29;101001.22;5034926;28;20466;-58
2021/06/18 08:40:30;;;;;;;19.30;8.23;;;;;;;37.41;37.25;101002.13;5036873;28;20025;-58
2021/06/18 08:42:56;;;;;;;21.60;8.25;;;;;;;37.57;37.52;101006.38;5036432;28;20059;-59
2021/06/18 08:45:21;;;;;;;13.10;7.72;;;;;;;37.69;36.33;101003.94;5036160;28;20085;-59
2021/06/18 08:47:49;;;;;;;14.20;6.65;;;;;;;37.85;36.23;100999.72;5036174;28;20034;-59
2021/06/18 08:50:22;;;;;;;11.57;7.75;;;;;;;38.00;36.40;100990.28;5018086;28;20036;-59
2021/06/18 08:52:48;;;;;;;14.88;7.03;;;;;;;38.23;35.77;100992.88;5035239;28;20037;-60
2021/06/18 08:55:18;;;;;;;15.48;8.98;;;;;;;37.95;36.18;100979.97;5035861;28;20088;-60
2021/06/18 08:57:47;;;;;;;12.48;6.53;;;;;;;38.19;35.62;100974.22;5018481;28;20057;-58
2021/06/18 09:00:13;;;;;;;11.00;7.18;;;;;;;38.33;35.44;100986.31;5035858;28;20049;-59
2021/06/18 09:02:38;;;;;;;13.07;7.85;;;;;;;38.12;36.17;100991.44;5035478;28;20025;-58
2021/06/18 09:05:14;;;;;;;11.15;7.38;;;;;;;38.26;35.38;100992.28;5035472;28;20083;-59
2021/06/18 09:08:02;;;;;;;9.27;6.65;;;;;;;38.57;34.89;100986.91;5033975;28;20033;-60
2021/06/18 09:10:42;;;;;;;7.55;5.72;;;;;;;38.85;35.30;100976.53;5016209;28;20038;-59
2021/06/18 09:13:30;;;;;;;9.15;6.13;;;;;;;39.09;35.53;100971.50;5015469;28;20080;-59
2021/06/18 09:15:57;;;;;;;12.27;6.72;;;;;;;39.36;34.38;100976.22;5015831;28;20065;-60
2021/06/18 09:18:35;;;;;;;12.30;6.97;;;;;;;39.55;34.04;100963.69;4981748;28;20526;-60
2021/06/18 09:21:01;;;;;;;10.07;5.68;;;;;;;39.67;34.50;100965.09;5015393;28;20049;-59
2021/06/18 09:23:38;;;;;;;9.38;5.63;;;;;;;39.83;34.14;100967.19;5015724;28;20065;-59
2021/06/18 09:26:23;;;;;;;12.57;5.95;;;;;;;39.96;33.72;100962.63;4997938;28;20022;-59
2021/06/18 09:28:55;;;;;;;7.88;5.68;;;;;;;40.04;33.71;100964.63;5015794;28;20025;-59
2021/06/18 09:31:24;;;;;;;11.02;6.47;;;;;;;40.16;33.31;100967.72;4997662;28;20040;-59
2021/06/18 09:33:50;;;;;;;7.70;5.68;;;;;;;40.29;33.73;100961.16;5015408;28;20109;-59
2021/06/18 09:36:16;;;;;;;9.65;5.22;;;;;;;40.47;33.11;100962.06;5015197;28;20037;-59
2021/06/18 09:38:43;;;;;;;8.57;4.47;;;;;;;40.68;32.94;100952.72;5015220;28;20470;-60
2021/06/18 09:41:30;;;;;;;9.05;5.32;;;;;;;40.70;32.21;100949.59;4997466;28;20032;-59
2021/06/18 09:44:12;;;;;;;9.02;4.82;;;;;;;40.94;32.31;100943.53;5015696;28;20022;-59
2021/06/18 09:46:45;;;;;;;7.05;4.63;;;;;;;40.80;32.61;100938.03;5015421;28;20060;-60
2021/06/18 09:49:37;;;;;;;9.35;5.68;;;;;;;40.89;32.22;100933.25;5015512;28;20518;-58
2021/06/18 09:52:10;;;;;;;12.10;5.47;;;;;;;41.18;31.59;100918.56;5010734;28;20104;-59
2021/06/18 09:54:49;;;;;;;8.98;4.93;;;;;;;41.42;31.39;100913.28;5014546;28;20087;-60
2021/06/18 09:57:15;;;;;;;9.20;4.82;;;;;;;41.64;31.46;100912.22;5015572;28;20032;-60
2021/06/18 09:59:52;;;;;;;8.50;4.35;;;;;;;41.88;31.01;100920.16;5015129;28;20101;-59
2021/06/18 10:02:19;;;;;;;5.47;4.00;;;;;;;42.21;30.74;100921.19;5015574;28;20025;-59
2021/06/18 10:04:45;;;;;;;5.70;4.07;;;;;;;42.19;30.65;100920.69;4996655;28;20521;-59
2021/06/18 10:07:11;;;;;;;46.10;43.10;;;;;;;42.00;30.72;100917.44;5014971;28;20026;-60
2021/06/18 10:09:38;;;;;;;67.82;64.30;;;;;;;42.35;30.13;100907.69;5025991;28;20107;-60
2021/06/18 10:12:05;;;;;;;36.20;33.78;;;;;;;42.75;29.66;100903.31;5034691;28;20038;-59
2021/06/18 10:14:30;;;;;;;7.05;4.78;;;;;;;43.67;28.49;100906.81;5034700;28;20041;-59
2021/06/18 10:16:56;;;;;;;8.30;4.18;;;;;;;44.64;27.54;100906.13;5034068;28;20041;-59
2021/06/18 10:19:22;;;;;;;10.90;3.90;;;;;;;45.30;26.94;100906.53;5034771;28;20021;-59
2021/06/18 10:22:14;;;;;;;13.25;4.80;;;;;;;45.25;26.97;100906.78;5035403;28;20030;-59
2021/06/18 10:24:50;;;;;;;9.25;3.50;;;;;;;44.92;27.19;100907.84;5033234;28;20056;-59
2021/06/18 10:27:18;;;;;;;7.50;3.45;;;;;;;44.77;27.69;100911.38;5016946;28;20493;-59
2021/06/18 10:29:45;;;;;;;4.38;3.97;;;;;;;44.47;28.20;100910.00;5033490;28;20470;-59
2021/06/18 10:32:33;;;;;;;7.25;3.83;;;;;;;44.41;27.73;100917.06;5000071;28;20474;-59
2021/06/18 10:35:03;;;;;;;8.57;4.10;;;;;;;44.50;27.86;100920.59;5034390;28;20052;-59
2021/06/18 10:37:31;;;;;;;4.38;3.72;;;;;;;44.63;27.83;100927.91;5000245;28;20441;-59
2021/06/18 10:40:08;;;;;;;7.00;4.07;;;;;;;44.78;27.13;100913.03;4999909;28;20112;-59
2021/06/18 10:42:33;;;;;;;5.80;4.50;;;;;;;44.91;27.09;100909.03;5016471;28;20116;-59
2021/06/18 10:45:00;;;;;;;4.82;3.72;;;;;;;45.04;26.90;100904.13;5034120;28;20204;-60
2021/06/18 10:47:25;;;;;;;6.38;5.78;;;;;;;45.25;26.79;100898.28;5033900;28;20079;-60
2021/06/18 10:49:52;;;;;;;6.85;4.88;;;;;;;45.25;26.20;100901.09;5034540;28;20025;-60
2021/06/18 10:52:26;;;;;;;5.15;4.65;;;;;;;45.49;26.44;100899.00;5032997;28;20021;-60
2021/06/18 10:54:56;;;;;;;6.90;3.92;;;;;;;45.56;26.38;100904.06;5034099;28;20033;-59
2021/06/18 10:57:23;;;;;;;17.30;4.20;;;;;;;45.67;26.52;100906.03;5033813;28;20033;-60
2021/06/18 10:59:54;;;;;;;7.03;4.05;;;;;;;45.78;26.08;100894.13;5033847;28;20022;-60
2021/06/18 11:02:22;;;;;;;5.07;3.58;;;;;;;45.97;25.66;100895.06;5032534;28;20470;-60
2021/06/18 11:04:53;;;;;;;6.82;3.97;;;;;;;46.16;25.76;100891.50;5033932;28;20026;-59
2021/06/18 11:07:19;;;;;;;5.97;3.30;;;;;;;46.35;26.04;100891.56;5016187;28;20438;-60
2021/06/18 11:09:45;;;;;;;5.95;3.80;;;;;;;46.41;25.21;100894.97;5033874;28;20506;-59
2021/06/18 11:12:23;;;;;;;8.18;3.72;;;;;;;46.58;24.65;100895.38;5034493;28;20098;-59
2021/06/18 11:15:20;;;;;;;5.72;3.00;;;;;;;46.83;25.18;100893.13;5034678;28;20117;-60
2021/06/18 11:17:53;;;;;;;6.00;3.63;;;;;;;46.97;24.47;100896.28;5020892;28;20041;-59
2021/06/18 11:20:22;;;;;;;5.07;3.40;;;;;;;47.07;24.25;100892.03;5036325;28;20373;-60
2021/06/18 11:22:52;;;;;;;9.88;4.25;;;;;;;47.14;24.66;100890.19;5037695;28;20459;-59
2021/06/18 11:25:45;;;;;;;3.90;3.10;;;;;;;47.03;24.58;100889.09;5037708;28;20029;-61
2021/06/18 11:28:19;;;;;;;4.03;3.42;;;;;;;46.73;24.10;100885.19;5037785;28;20025;-59